createdAt,value
2023-01-18T00:01:19.730Z,9.25
2023-01-18T00:03:47.707Z,12.98
2023-01-18T00:06:15.091Z,10.52
2023-01-18T00:08:45.265Z,8.63
2023-01-18T00:11:15.730Z,11.20
2023-01-18T00:13:43.362Z,9.77
2023-01-18T00:16:22.015Z,9.15
2023-01-18T00:18:54.585Z,9.98
2023-01-18T00:21:22.689Z,19.58
2023-01-18T00:23:50.154Z,10.10
2023-01-18T00:26:17.683Z,8.25
2023-01-18T00:28:45.129Z,13.75
2023-01-18T00:31:14.333Z,11.38
2023-01-18T00:33:46.338Z,9.15
2023-01-18T00:36:14.843Z,13.02
2023-01-18T00:38:52.490Z,11.75
2023-01-18T00:41:21.589Z,11.65
2023-01-18T00:43:49.508Z,10.15
2023-01-18T00:46:23.034Z,9.18
2023-01-18T00:48:51.949Z,14.25
2023-01-18T00:51:24.939Z,12.38
2023-01-18T00:53:52.564Z,6.78
2023-01-18T00:56:22.221Z,11.13
2023-01-18T00:58:49.626Z,12.10
2023-01-18T01:01:17.294Z,9.45
2023-01-18T01:04:03.136Z,10.80
2023-01-18T01:06:46.371Z,12.65
2023-01-18T01:09:26.167Z,13.82
2023-01-18T01:12:13.246Z,8.35
2023-01-18T01:15:02.457Z,16.08
2023-01-18T01:17:53.599Z,13.80
2023-01-18T01:20:40.061Z,14.30
2023-01-18T01:23:35.072Z,13.20
2023-01-18T01:26:11.098Z,18.05
2023-01-18T01:28:43.816Z,13.10
2023-01-18T01:31:15.666Z,11.40
2023-01-18T01:33:45.016Z,13.88
2023-01-18T01:36:15.762Z,13.90
2023-01-18T01:38:43.337Z,17.48
2023-01-18T01:41:18.058Z,13.07
2023-01-18T01:43:50.978Z,22.15
2023-01-18T01:46:49.115Z,14.07
2023-01-18T01:49:24.150Z,13.68
2023-01-18T01:51:55.857Z,9.13
2023-01-18T01:54:39.093Z,11.00
2023-01-18T01:57:15.840Z,11.45
2023-01-18T01:59:55.897Z,15.88
2023-01-18T02:02:23.299Z,11.88
2023-01-18T02:04:53.978Z,14.07
2023-01-18T02:07:26.559Z,14.98
2023-01-18T02:09:54.569Z,11.40
2023-01-18T02:12:21.975Z,11.90
2023-01-18T02:14:49.366Z,12.48
2023-01-18T02:17:32.882Z,21.45
2023-01-18T02:20:43.607Z,14.70
2023-01-18T02:23:43.985Z,7.97
2023-01-18T02:26:38.956Z,5.47
2023-01-18T02:29:36.854Z,8.90
2023-01-18T02:32:25.569Z,12.43
2023-01-18T02:35:07.060Z,9.90
2023-01-18T02:38:03.358Z,10.13
2023-01-18T02:40:39.746Z,12.23
2023-01-18T02:43:28.855Z,11.40
2023-01-18T02:46:16.018Z,11.60
2023-01-18T02:48:45.376Z,7.32
2023-01-18T02:51:12.720Z,7.05
2023-01-18T02:53:43.905Z,6.47
2023-01-18T02:56:25.759Z,8.65
2023-01-18T02:59:02.385Z,9.65
2023-01-18T03:01:44.672Z,5.90
2023-01-18T03:04:22.322Z,7.97
2023-01-18T03:06:57.531Z,13.02
2023-01-18T03:09:27.466Z,12.13
2023-01-18T03:12:17.864Z,9.40
2023-01-18T03:15:10.325Z,10.23
2023-01-18T03:18:05.596Z,7.95
2023-01-18T03:20:40.784Z,9.45
2023-01-18T03:23:34.532Z,11.10
2023-01-18T03:26:04.161Z,8.35
2023-01-18T03:28:59.483Z,9.43
2023-01-18T03:32:07.783Z,9.75
2023-01-18T03:35:13.543Z,7.60
2023-01-18T03:37:43.631Z,7.53
2023-01-18T03:40:13.035Z,12.88
2023-01-18T03:43:15.204Z,19.27
2023-01-18T03:45:50.161Z,13.63
2023-01-18T03:48:17.807Z,13.95
2023-01-18T03:51:16.512Z,16.48
2023-01-18T03:53:58.309Z,11.98
2023-01-18T03:56:39.204Z,21.63
2023-01-18T03:59:08.169Z,10.65
2023-01-18T04:01:36.039Z,17.27
2023-01-18T04:04:03.375Z,11.98
2023-01-18T04:06:32.822Z,17.65
2023-01-18T04:09:00.141Z,14.70
2023-01-18T04:11:27.490Z,18.05
2023-01-18T04:13:55.173Z,22.08
2023-01-18T04:16:22.786Z,20.10
2023-01-18T04:18:50.157Z,21.45
2023-01-18T04:21:17.465Z,17.65
2023-01-18T04:23:44.783Z,24.52
2023-01-18T04:26:15.463Z,28.73
2023-01-18T04:28:43.550Z,44.92
2023-01-18T04:31:10.916Z,26.58
2023-01-18T04:33:38.200Z,44.63
2023-01-18T04:36:05.791Z,34.05
2023-01-18T04:38:33.882Z,37.70
2023-01-18T04:41:05.763Z,41.78
2023-01-18T04:43:33.095Z,36.08
2023-01-18T04:46:00.611Z,37.63
2023-01-18T04:48:27.968Z,32.72
2023-01-18T04:50:55.436Z,18.10
2023-01-18T04:53:23.225Z,27.55
2023-01-18T04:55:50.688Z,36.38
2023-01-18T04:58:18.041Z,23.27
2023-01-18T05:00:45.520Z,29.58
2023-01-18T05:03:13.460Z,27.35
2023-01-18T05:05:41.261Z,19.83
2023-01-18T05:08:08.682Z,30.63
2023-01-18T05:10:36.153Z,25.35
2023-01-18T05:13:03.938Z,23.13
2023-01-18T05:15:31.346Z,21.13
2023-01-18T05:17:58.682Z,24.73
2023-01-18T05:20:25.932Z,14.00
2023-01-18T05:22:53.373Z,26.50
2023-01-18T05:25:20.793Z,19.73
2023-01-18T05:27:48.119Z,19.38
2023-01-18T05:30:15.749Z,18.63
2023-01-18T05:32:43.144Z,25.77
2023-01-18T05:35:11.417Z,17.33
2023-01-18T05:37:38.828Z,14.52
2023-01-18T05:40:06.743Z,14.95
2023-01-18T05:42:34.083Z,20.05
2023-01-18T05:45:01.395Z,16.48
2023-01-18T05:47:28.755Z,22.20
2023-01-18T05:49:58.036Z,22.83
2023-01-18T05:52:25.382Z,17.17
2023-01-18T05:54:52.613Z,16.50
2023-01-18T05:57:19.891Z,21.83
2023-01-18T05:59:47.169Z,41.35
2023-01-18T06:02:14.710Z,25.85
2023-01-18T06:04:42.104Z,12.63
2023-01-18T06:07:09.607Z,18.33
2023-01-18T06:09:37.152Z,23.15
2023-01-18T06:12:04.644Z,21.80
2023-01-18T06:14:32.043Z,19.92
2023-01-18T06:16:59.349Z,30.83
2023-01-18T06:19:26.881Z,29.08
2023-01-18T06:21:54.874Z,26.42
2023-01-18T06:24:22.225Z,26.85
2023-01-18T06:26:49.515Z,30.90
2023-01-18T06:29:16.974Z,29.92
2023-01-18T06:31:44.337Z,18.80
2023-01-18T06:34:11.885Z,29.67
2023-01-18T06:36:40.559Z,31.45
2023-01-18T06:39:08.011Z,29.10
2023-01-18T06:41:35.379Z,37.72
2023-01-18T06:44:03.810Z,33.35
2023-01-18T06:46:31.241Z,31.25
2023-01-18T06:48:58.541Z,24.95
2023-01-18T06:51:25.891Z,35.10
2023-01-18T06:53:53.311Z,24.30
2023-01-18T06:56:21.055Z,24.48
2023-01-18T06:58:48.675Z,39.42
2023-01-18T07:01:16.151Z,40.88
2023-01-18T07:03:43.733Z,32.08
2023-01-18T07:06:11.607Z,33.45
2023-01-18T07:08:40.359Z,31.67
2023-01-18T07:11:09.243Z,22.90
2023-01-18T07:13:40.299Z,31.52
2023-01-18T07:16:09.040Z,36.97
2023-01-18T07:18:36.447Z,24.75
2023-01-18T07:21:07.239Z,28.60
2023-01-18T07:23:36.744Z,30.45
2023-01-18T07:26:11.132Z,24.40
2023-01-18T07:28:38.976Z,34.60
2023-01-18T07:31:08.176Z,29.67
2023-01-18T07:33:36.450Z,21.42
2023-01-18T07:36:06.524Z,24.20
2023-01-18T07:38:34.417Z,21.80
2023-01-18T07:41:03.354Z,41.22
2023-01-18T07:43:32.555Z,31.55
2023-01-18T07:46:00.911Z,32.72
2023-01-18T07:48:29.292Z,35.00
2023-01-18T07:51:01.981Z,44.03
2023-01-18T07:53:31.006Z,30.00
2023-01-18T07:56:07.311Z,34.63
2023-01-18T07:58:36.121Z,43.50
2023-01-18T08:01:15.490Z,51.72
2023-01-18T08:03:44.470Z,38.00
2023-01-18T08:06:17.155Z,29.67
2023-01-18T08:08:45.157Z,44.08
2023-01-18T08:11:12.904Z,40.40
2023-01-18T08:13:40.417Z,42.13
2023-01-18T08:16:09.453Z,31.92
2023-01-18T08:18:36.970Z,35.10
2023-01-18T08:21:04.393Z,42.17
2023-01-18T08:23:31.702Z,35.75
2023-01-18T08:26:03.409Z,25.38
2023-01-18T08:28:31.500Z,27.88
2023-01-18T08:31:08.309Z,27.75
2023-01-18T08:33:45.732Z,30.80
2023-01-18T08:36:16.779Z,22.80
2023-01-18T08:38:47.599Z,23.75
2023-01-18T08:41:15.025Z,23.75
2023-01-18T08:43:43.181Z,24.58
2023-01-18T08:46:10.621Z,27.70
2023-01-18T08:48:37.985Z,29.58
2023-01-18T08:51:05.519Z,33.03
2023-01-18T08:53:33.064Z,46.85
2023-01-18T08:56:03.398Z,35.67
2023-01-18T08:58:32.389Z,48.47
2023-01-18T09:00:59.772Z,44.20
2023-01-18T09:03:27.108Z,43.10
2023-01-18T09:05:54.954Z,49.88
2023-01-18T09:08:23.206Z,50.17
2023-01-18T09:10:50.505Z,45.63
2023-01-18T09:13:17.877Z,58.45
2023-01-18T09:15:47.156Z,42.08
2023-01-18T09:18:14.529Z,44.22
2023-01-18T09:20:43.770Z,48.50
2023-01-18T09:23:11.205Z,44.85
2023-01-18T09:25:41.262Z,45.40
2023-01-18T09:28:09.064Z,41.20
2023-01-18T09:30:40.076Z,56.88
2023-01-18T09:33:11.368Z,39.43
2023-01-18T09:35:39.002Z,41.80
2023-01-18T09:38:07.561Z,48.13
2023-01-18T09:40:44.536Z,44.15
2023-01-18T09:43:30.364Z,42.70
2023-01-18T09:46:00.010Z,35.10
2023-01-18T09:48:32.248Z,42.13
2023-01-18T09:51:05.222Z,49.88
2023-01-18T09:54:05.080Z,55.30
2023-01-18T09:57:05.669Z,39.45
2023-01-18T09:59:37.436Z,56.45
2023-01-18T10:02:21.558Z,40.22
2023-01-18T10:04:56.084Z,53.05
2023-01-18T10:07:27.625Z,51.25
2023-01-18T10:09:58.895Z,49.35
2023-01-18T10:12:42.473Z,33.40
2023-01-18T10:15:23.657Z,45.97
2023-01-18T10:17:56.858Z,41.75
2023-01-18T10:20:35.789Z,42.35
2023-01-18T10:23:25.073Z,51.47
2023-01-18T10:26:27.392Z,48.15
2023-01-18T10:28:59.265Z,44.67
2023-01-18T10:31:59.879Z,35.88
2023-01-18T10:34:33.100Z,50.47
2023-01-18T10:37:21.322Z,43.13
2023-01-18T10:39:54.300Z,42.95
2023-01-18T10:42:29.525Z,57.58
2023-01-18T10:44:57.487Z,57.78
2023-01-18T10:47:24.809Z,43.17
2023-01-18T10:50:01.640Z,49.63
2023-01-18T10:52:33.200Z,44.17
2023-01-18T10:55:03.372Z,54.13
2023-01-18T10:57:32.920Z,51.35
2023-01-18T11:00:00.468Z,57.80
2023-01-18T11:02:36.143Z,50.28
2023-01-18T11:05:18.928Z,47.95
2023-01-18T11:07:46.277Z,48.42
2023-01-18T11:10:27.872Z,61.78
2023-01-18T11:12:55.672Z,47.83
2023-01-18T11:15:25.004Z,47.22
2023-01-18T11:17:56.415Z,52.17
2023-01-18T11:20:25.845Z,47.17
2023-01-18T11:23:02.519Z,44.22
2023-01-18T11:25:39.420Z,61.50
2023-01-18T11:28:27.841Z,44.15
2023-01-18T11:31:15.432Z,53.20
2023-01-18T11:33:58.011Z,53.83
2023-01-18T11:36:43.812Z,87.93
2023-01-18T11:39:25.777Z,55.25
2023-01-18T11:44:40.222Z,54.42
2023-01-18T11:47:16.872Z,57.97
2023-01-18T11:50:21.058Z,52.15
2023-01-18T11:53:01.244Z,47.95
2023-01-18T11:55:41.087Z,103.40
2023-01-18T11:58:26.995Z,58.85
2023-01-18T12:01:25.413Z,72.85
2023-01-18T12:03:56.962Z,45.22
2023-01-18T12:06:41.566Z,49.40
2023-01-18T12:09:14.756Z,50.20
2023-01-18T12:12:17.910Z,35.67
2023-01-18T12:14:59.628Z,66.40
2023-01-18T12:17:39.134Z,49.10
2023-01-18T12:20:10.320Z,52.78
2023-01-18T12:23:28.261Z,47.97
2023-01-18T12:26:11.799Z,72.78
2023-01-18T12:28:40.005Z,75.72
2023-01-18T12:31:15.344Z,39.88
2023-01-18T12:34:15.019Z,72.57
2023-01-18T12:36:59.031Z,49.25
2023-01-18T12:39:44.278Z,36.47
2023-01-18T12:42:36.440Z,37.15
2023-01-18T12:45:46.184Z,32.95
2023-01-18T12:48:41.332Z,38.05
2023-01-18T12:51:21.728Z,70.53
2023-01-18T12:53:55.867Z,53.67
2023-01-18T12:56:36.154Z,51.50
2023-01-18T12:59:29.233Z,44.58
2023-01-18T13:02:05.886Z,57.00
2023-01-18T13:04:45.330Z,45.53
2023-01-18T13:07:15.721Z,34.50
2023-01-18T13:09:49.694Z,40.47
2023-01-18T13:12:17.792Z,30.45
2023-01-18T13:14:54.261Z,60.70
2023-01-18T13:17:48.686Z,43.28
2023-01-18T13:20:20.045Z,43.30
2023-01-18T13:23:05.454Z,39.80
2023-01-18T13:25:41.804Z,40.65
2023-01-18T13:28:18.020Z,46.95
2023-01-18T13:31:06.546Z,27.33
2023-01-18T13:33:40.928Z,34.10
2023-01-18T13:36:09.277Z,49.53
2023-01-18T13:38:58.937Z,37.92
2023-01-18T13:41:30.964Z,22.00
2023-01-18T13:46:26.201Z,29.77
2023-01-18T13:49:35.729Z,42.13
2023-01-18T13:52:31.697Z,39.80
2023-01-18T13:55:02.531Z,34.55
2023-01-18T13:57:34.681Z,29.55
2023-01-18T14:00:02.878Z,32.13
2023-01-18T14:02:45.544Z,31.00
2023-01-18T14:05:28.920Z,33.25
2023-01-18T14:08:01.677Z,36.92
2023-01-18T14:10:32.232Z,74.95
2023-01-18T14:13:02.791Z,35.67
2023-01-18T14:15:39.771Z,22.95
2023-01-18T14:18:24.272Z,30.15
2023-01-18T14:21:23.922Z,28.13
2023-01-18T14:24:09.612Z,28.65
2023-01-18T14:26:39.526Z,41.60
2023-01-18T14:29:29.170Z,35.97
2023-01-18T14:31:57.454Z,29.00
2023-01-18T14:34:30.619Z,48.03
2023-01-18T14:36:58.386Z,37.83
2023-01-18T14:39:26.130Z,31.80
2023-01-18T14:42:05.327Z,34.30
2023-01-18T14:44:58.263Z,34.22
2023-01-18T14:47:32.404Z,32.47
2023-01-18T14:50:04.124Z,38.20
2023-01-18T14:52:34.410Z,36.45
2023-01-18T14:55:02.678Z,35.55
2023-01-18T14:57:30.145Z,35.00
2023-01-18T15:00:16.649Z,38.28
2023-01-18T15:02:44.263Z,44.50
2023-01-18T15:05:20.281Z,34.22
2023-01-18T15:07:56.063Z,26.25
2023-01-18T15:10:24.949Z,31.80
2023-01-18T15:12:57.941Z,30.00
2023-01-18T15:15:40.759Z,35.85
2023-01-18T15:18:15.644Z,36.25
2023-01-18T15:21:06.369Z,37.15
2023-01-18T15:23:36.942Z,31.73
2023-01-18T15:26:04.449Z,37.55
2023-01-18T15:28:34.825Z,36.75
2023-01-18T15:31:16.377Z,41.28
2023-01-18T15:33:45.018Z,53.42
2023-01-18T15:36:12.640Z,38.80
2023-01-18T15:38:40.070Z,42.92
2023-01-18T15:41:11.616Z,45.35
2023-01-18T15:43:43.113Z,38.42
2023-01-18T15:46:16.226Z,32.05
2023-01-18T15:48:58.254Z,52.17
2023-01-18T15:51:44.146Z,40.38
2023-01-18T15:54:20.366Z,49.78
2023-01-18T15:56:49.361Z,45.22
2023-01-18T15:59:23.443Z,43.70
2023-01-18T16:02:26.426Z,62.95
2023-01-18T16:05:14.629Z,51.35
2023-01-18T16:07:42.299Z,58.13
2023-01-18T16:10:20.473Z,52.22
2023-01-18T16:12:48.186Z,49.42
2023-01-18T16:15:30.460Z,50.00
2023-01-18T16:20:32.561Z,59.75
2023-01-18T16:23:14.088Z,54.10
2023-01-18T16:25:41.510Z,58.00
2023-01-18T16:28:08.784Z,47.45
2023-01-18T16:30:38.015Z,45.97
2023-01-18T16:33:14.131Z,56.53
2023-01-18T16:35:42.206Z,56.25
2023-01-18T16:38:17.438Z,56.38
2023-01-18T16:40:47.345Z,53.60
2023-01-18T16:43:23.880Z,62.97
2023-01-18T16:45:54.902Z,53.88
2023-01-18T16:48:28.288Z,56.78
2023-01-18T16:51:01.893Z,54.38
2023-01-18T16:53:29.721Z,50.90
2023-01-18T16:55:57.042Z,77.68
2023-01-18T16:58:24.593Z,53.88
2023-01-18T17:01:03.444Z,54.85
2023-01-18T17:03:30.917Z,66.05
2023-01-18T17:05:58.269Z,52.35
2023-01-18T17:08:25.560Z,59.72
2023-01-18T17:10:54.885Z,67.15
2023-01-18T17:13:22.487Z,55.50
2023-01-18T17:15:51.370Z,53.63
2023-01-18T17:18:24.212Z,56.45
2023-01-18T17:20:52.009Z,58.15
2023-01-18T17:23:19.788Z,62.88
2023-01-18T17:25:47.861Z,45.72
2023-01-18T17:28:16.898Z,58.10
2023-01-18T17:30:47.180Z,50.33
2023-01-18T17:33:22.984Z,35.08
2023-01-18T17:35:52.001Z,58.72
2023-01-18T17:38:25.720Z,55.30
2023-01-18T17:40:54.868Z,58.92
2023-01-18T17:43:32.987Z,52.33
2023-01-18T17:46:06.205Z,55.80
2023-01-18T17:51:01.221Z,53.78
2023-01-18T17:53:28.557Z,58.75
2023-01-18T17:55:55.858Z,56.90
2023-01-18T17:58:23.176Z,72.53
2023-01-18T18:00:50.677Z,61.05
2023-01-18T18:03:18.110Z,48.15
2023-01-18T18:05:45.536Z,51.53
2023-01-18T18:08:12.747Z,59.63
2023-01-18T18:10:43.417Z,59.28
2023-01-18T18:13:12.150Z,79.15
2023-01-18T18:15:45.118Z,55.63
2023-01-18T18:18:22.747Z,60.75
2023-01-18T18:20:58.890Z,66.40
2023-01-18T18:23:27.436Z,61.08
2023-01-18T18:25:55.781Z,43.65
2023-01-18T18:28:24.592Z,56.88
2023-01-18T18:30:52.228Z,72.30
2023-01-18T18:33:20.362Z,64.00
2023-01-18T18:35:52.181Z,64.22
2023-01-18T18:38:23.168Z,67.18
2023-01-18T18:40:51.551Z,70.03
2023-01-18T18:43:19.296Z,62.33
2023-01-18T18:45:47.771Z,59.47
2023-01-18T18:48:15.314Z,50.33
2023-01-18T18:50:42.576Z,69.72
2023-01-18T18:53:09.887Z,65.53
2023-01-18T18:55:37.272Z,50.63
2023-01-18T18:58:05.362Z,66.07
2023-01-18T19:00:32.746Z,63.35
2023-01-18T19:03:02.599Z,57.13
2023-01-18T19:05:31.705Z,46.03
2023-01-18T19:07:59.811Z,59.10
2023-01-18T19:10:30.495Z,56.13
2023-01-18T19:12:59.543Z,50.28
2023-01-18T19:15:26.977Z,84.82
2023-01-18T19:17:54.351Z,95.80
2023-01-18T19:20:21.995Z,112.68
2023-01-18T19:22:50.914Z,110.10
2023-01-18T19:25:18.298Z,159.25
2023-01-18T19:27:46.277Z,114.13
2023-01-18T19:30:19.134Z,114.57
2023-01-18T19:32:51.090Z,93.63
2023-01-18T19:35:20.110Z,82.90
2023-01-18T19:37:48.068Z,49.72
2023-01-18T19:40:16.332Z,45.63
2023-01-18T19:42:44.818Z,50.58
2023-01-18T19:45:19.578Z,62.45
2023-01-18T19:47:54.757Z,227.95
2023-01-18T19:50:22.294Z,347.98
2023-01-18T19:52:50.447Z,328.75
2023-01-18T19:55:17.907Z,169.00
2023-01-18T19:57:45.313Z,168.60
2023-01-18T20:00:15.591Z,125.68
2023-01-18T20:02:43.820Z,123.90
2023-01-18T20:05:11.162Z,98.85
2023-01-18T20:07:40.319Z,85.45
2023-01-18T20:10:08.725Z,120.90
2023-01-18T20:12:36.014Z,88.72
2023-01-18T20:15:03.545Z,75.47
2023-01-18T20:17:30.896Z,80.07
2023-01-18T20:19:58.073Z,84.13
2023-01-18T20:22:25.448Z,74.20
2023-01-18T20:24:52.671Z,72.10
2023-01-18T20:27:20.028Z,159.35
2023-01-18T20:29:47.327Z,193.25
2023-01-18T20:32:17.080Z,114.57
2023-01-18T20:34:46.998Z,136.73
2023-01-18T20:37:15.759Z,94.65
2023-01-18T20:39:43.476Z,88.63
2023-01-18T20:42:10.982Z,85.70
2023-01-18T20:44:38.375Z,71.25
2023-01-18T20:47:05.881Z,60.40
2023-01-18T20:49:38.035Z,74.40
2023-01-18T20:52:07.219Z,60.13
2023-01-18T20:54:37.995Z,62.95
2023-01-18T20:57:06.350Z,63.33
2023-01-18T20:59:33.653Z,66.90
2023-01-18T21:02:10.287Z,61.47
2023-01-18T21:04:39.781Z,72.63
2023-01-18T21:07:07.002Z,64.00
2023-01-18T21:09:34.214Z,69.28
2023-01-18T21:12:01.575Z,59.00
2023-01-18T21:15:16.737Z,74.35
2023-01-18T21:18:04.166Z,51.47
2023-01-18T21:20:34.509Z,74.53
2023-01-18T21:23:02.109Z,65.90
2023-01-18T21:25:29.751Z,62.83
2023-01-18T21:28:00.424Z,53.38
2023-01-18T21:30:27.947Z,59.10
2023-01-18T21:32:58.044Z,55.55
2023-01-18T21:35:25.349Z,47.05
2023-01-18T21:37:52.742Z,70.22
2023-01-18T21:40:20.037Z,73.22
2023-01-18T21:43:08.458Z,61.03
2023-01-18T21:45:56.700Z,70.60
2023-01-18T21:48:43.484Z,62.10
2023-01-18T21:51:31.492Z,51.78
2023-01-18T21:57:34.201Z,62.22
2023-01-18T22:00:05.753Z,60.25
2023-01-18T22:02:35.075Z,70.47
2023-01-18T22:05:06.235Z,56.42
2023-01-18T22:07:35.500Z,56.33
2023-01-18T22:10:06.141Z,56.47
2023-01-18T22:12:36.038Z,78.40
2023-01-18T22:15:05.363Z,60.85
2023-01-18T22:17:35.693Z,53.20
2023-01-18T22:20:04.699Z,54.95
2023-01-18T22:22:31.962Z,76.97
2023-01-18T22:25:02.286Z,65.90
2023-01-18T22:27:29.744Z,60.70
2023-01-18T22:32:39.095Z,33.67
2023-01-18T22:35:06.581Z,22.60
2023-01-18T22:37:33.737Z,14.23
2023-01-18T22:40:01.018Z,15.38
2023-01-18T22:42:28.370Z,10.10
2023-01-18T22:44:55.610Z,18.38
2023-01-18T22:47:22.990Z,9.02
2023-01-18T22:49:50.181Z,8.23
2023-01-18T22:52:17.580Z,5.78
2023-01-18T22:54:44.991Z,12.05
2023-01-18T22:57:13.295Z,11.77
2023-01-18T22:59:40.710Z,11.13
2023-01-18T23:02:07.960Z,9.23
2023-01-18T23:04:35.516Z,7.40
2023-01-18T23:07:02.751Z,14.25
2023-01-18T23:09:38.492Z,14.18
2023-01-18T23:12:05.913Z,10.60
2023-01-18T23:14:53.427Z,9.18
2023-01-18T23:17:39.337Z,12.13
2023-01-18T23:20:11.816Z,11.50
2023-01-18T23:22:40.941Z,9.90
2023-01-18T23:25:12.445Z,10.85
2023-01-18T23:27:39.799Z,11.02
2023-01-18T23:30:07.613Z,5.95
2023-01-18T23:32:37.434Z,4.60
2023-01-18T23:35:06.168Z,4.53
2023-01-18T23:37:34.977Z,9.63
2023-01-18T23:40:22.571Z,8.85
2023-01-18T23:43:12.195Z,10.38
2023-01-18T23:45:58.201Z,10.88
2023-01-18T23:48:45.017Z,5.53
2023-01-18T23:51:31.919Z,13.13
2023-01-18T23:54:17.044Z,7.82
2023-01-18T23:56:46.099Z,9.07
2023-01-18T23:59:14.348Z,10.55
